sensor_id;sensor_type;location;lat;lon;timestamp;P1;durP1;ratioP1;P2;durP2;ratioP2
35552;SDS011;21656;46.054;13.614;2022-12-29T10:25:30;42.60;;;23.05;;
35552;SDS011;21656;46.054;13.614;2022-12-29T10:28:00;59.75;;;30.60;;
35552;SDS011;21656;46.054;13.614;2022-12-29T10:30:29;104.60;;;48.17;;
35552;SDS011;21656;46.054;13.614;2022-12-29T10:32:56;63.72;;;34.95;;
35552;SDS011;21656;46.054;13.614;2022-12-29T10:35:26;69.70;;;33.10;;
35552;SDS011;21656;46.054;13.614;2022-12-29T10:40:49;59.95;;;31.83;;
35552;SDS011;21656;46.054;13.614;2022-12-29T10:43:27;60.45;;;29.40;;
35552;SDS011;21656;46.054;13.614;2022-12-29T10:45:55;57.22;;;28.55;;
35552;SDS011;21656;46.054;13.614;2022-12-29T10:48:28;54.40;;;28.15;;
35552;SDS011;21656;46.054;13.614;2022-12-29T10:50:56;53.20;;;26.35;;
35552;SDS011;21656;46.054;13.614;2022-12-29T10:53:30;51.13;;;26.98;;
35552;SDS011;21656;46.054;13.614;2022-12-29T10:56:09;50.33;;;27.75;;
35552;SDS011;21656;46.054;13.614;2022-12-29T10:58:51;52.00;;;27.75;;
35552;SDS011;21656;46.054;13.614;2022-12-29T11:01:20;55.47;;;28.13;;
35552;SDS011;21656;46.054;13.614;2022-12-29T11:03:49;51.22;;;28.10;;
35552;SDS011;21656;46.054;13.614;2022-12-29T11:06:25;51.30;;;24.95;;
35552;SDS011;21656;46.054;13.614;2022-12-29T11:08:59;41.08;;;21.98;;
35552;SDS011;21656;46.054;13.614;2022-12-29T11:11:35;45.60;;;24.73;;
35552;SDS011;21656;46.054;13.614;2022-12-29T11:14:26;49.45;;;22.25;;
35552;SDS011;21656;46.054;13.614;2022-12-29T11:16:58;54.45;;;26.20;;
35552;SDS011;21656;46.054;13.614;2022-12-29T11:19:25;45.47;;;24.38;;
35552;SDS011;21656;46.054;13.614;2022-12-29T11:21:53;62.42;;;30.77;;
35552;SDS011;21656;46.054;13.614;2022-12-29T11:24:26;80.90;;;37.00;;
35552;SDS011;21656;46.054;13.614;2022-12-29T11:27:15;81.93;;;38.70;;
35552;SDS011;21656;46.054;13.614;2022-12-29T11:29:44;59.30;;;27.92;;
35552;SDS011;21656;46.054;13.614;2022-12-29T11:32:11;48.55;;;22.17;;
35552;SDS011;21656;46.054;13.614;2022-12-29T11:34:42;36.00;;;18.10;;
35552;SDS011;21656;46.054;13.614;2022-12-29T11:37:10;41.05;;;19.02;;
35552;SDS011;21656;46.054;13.614;2022-12-29T11:42:32;40.22;;;21.83;;
35552;SDS011;21656;46.054;13.614;2022-12-29T11:45:05;37.83;;;19.58;;
35552;SDS011;21656;46.054;13.614;2022-12-29T11:47:41;38.35;;;20.33;;
35552;SDS011;21656;46.054;13.614;2022-12-29T11:50:15;41.92;;;20.60;;
35552;SDS011;21656;46.054;13.614;2022-12-29T11:52:46;35.15;;;18.48;;
35552;SDS011;21656;46.054;13.614;2022-12-29T11:55:20;39.58;;;20.00;;
35552;SDS011;21656;46.054;13.614;2022-12-29T11:57:48;35.97;;;19.40;;
35552;SDS011;21656;46.054;13.614;2022-12-29T12:05:14;40.63;;;20.42;;
35552;SDS011;21656;46.054;13.614;2022-12-29T12:10:22;49.75;;;27.25;;
35552;SDS011;21656;46.054;13.614;2022-12-29T12:15:27;40.20;;;20.65;;
35552;SDS011;21656;46.054;13.614;2022-12-29T12:18:00;39.58;;;19.58;;
35552;SDS011;21656;46.054;13.614;2022-12-29T12:20:56;35.78;;;18.75;;
35552;SDS011;21656;46.054;13.614;2022-12-29T12:23:40;41.33;;;20.55;;
35552;SDS011;21656;46.054;13.614;2022-12-29T12:26:19;40.28;;;20.52;;
35552;SDS011;21656;46.054;13.614;2022-12-29T12:28:52;47.10;;;21.92;;
35552;SDS011;21656;46.054;13.614;2022-12-29T12:31:25;48.70;;;25.90;;
35552;SDS011;21656;46.054;13.614;2022-12-29T12:34:06;60.45;;;25.70;;
35552;SDS011;21656;46.054;13.614;2022-12-29T12:50:46;41.67;;;21.83;;
35552;SDS011;21656;46.054;13.614;2022-12-29T12:53:26;43.75;;;20.90;;
35552;SDS011;21656;46.054;13.614;2022-12-29T13:17:45;44.22;;;22.08;;
35552;SDS011;21656;46.054;13.614;2022-12-29T13:20:47;52.67;;;23.45;;
35552;SDS011;21656;46.054;13.614;2022-12-29T13:23:24;37.45;;;20.15;;
35552;SDS011;21656;46.054;13.614;2022-12-29T13:34:34;37.85;;;20.17;;
35552;SDS011;21656;46.054;13.614;2022-12-29T13:37:02;47.05;;;23.95;;
35552;SDS011;21656;46.054;13.614;2022-12-29T13:39:36;48.58;;;24.30;;
35552;SDS011;21656;46.054;13.614;2022-12-29T13:42:03;49.22;;;25.23;;
35552;SDS011;21656;46.054;13.614;2022-12-29T13:44:45;47.33;;;25.33;;
35552;SDS011;21656;46.054;13.614;2022-12-29T13:47:25;45.42;;;24.88;;
35552;SDS011;21656;46.054;13.614;2022-12-29T13:49:55;40.15;;;22.20;;
35552;SDS011;21656;46.054;13.614;2022-12-29T13:52:30;42.47;;;21.83;;
35552;SDS011;21656;46.054;13.614;2022-12-29T13:55:21;40.60;;;21.88;;
35552;SDS011;21656;46.054;13.614;2022-12-29T14:00:58;42.55;;;20.10;;
35552;SDS011;21656;46.054;13.614;2022-12-29T14:03:48;42.30;;;23.13;;
35552;SDS011;21656;46.054;13.614;2022-12-29T14:06:21;48.38;;;25.92;;
35552;SDS011;21656;46.054;13.614;2022-12-29T14:08:55;48.95;;;26.23;;
35552;SDS011;21656;46.054;13.614;2022-12-29T14:11:22;51.42;;;26.35;;
35552;SDS011;21656;46.054;13.614;2022-12-29T14:13:53;47.80;;;25.25;;
35552;SDS011;21656;46.054;13.614;2022-12-29T14:16:30;52.67;;;28.60;;
35552;SDS011;21656;46.054;13.614;2022-12-29T14:19:43;41.08;;;21.17;;
35552;SDS011;21656;46.054;13.614;2022-12-29T14:21:52;39.38;;;19.08;;
35552;SDS011;21656;46.054;13.614;2022-12-29T14:34:55;30.70;;;16.00;;
35552;SDS011;21656;46.054;13.614;2022-12-29T14:37:23;37.28;;;17.17;;
35552;SDS011;21656;46.054;13.614;2022-12-29T14:40:36;37.83;;;18.35;;
35552;SDS011;21656;46.054;13.614;2022-12-29T14:42:51;37.75;;;20.30;;
35552;SDS011;21656;46.054;13.614;2022-12-29T14:47:46;40.42;;;21.23;;
35552;SDS011;21656;46.054;13.614;2022-12-29T14:50:23;43.88;;;23.83;;
35552;SDS011;21656;46.054;13.614;2022-12-29T14:58:12;50.20;;;25.38;;
35552;SDS011;21656;46.054;13.614;2022-12-29T15:00:56;64.75;;;33.33;;
35552;SDS011;21656;46.054;13.614;2022-12-29T15:03:25;58.42;;;28.55;;
35552;SDS011;21656;46.054;13.614;2022-12-29T15:05:55;48.30;;;25.05;;
35552;SDS011;21656;46.054;13.614;2022-12-29T15:08:24;49.90;;;24.10;;
35552;SDS011;21656;46.054;13.614;2022-12-29T15:10:53;45.45;;;22.15;;
35552;SDS011;21656;46.054;13.614;2022-12-29T15:13:32;40.75;;;19.42;;
35552;SDS011;21656;46.054;13.614;2022-12-29T15:16:02;62.38;;;26.20;;
35552;SDS011;21656;46.054;13.614;2022-12-29T15:18:29;63.83;;;26.42;;
35552;SDS011;21656;46.054;13.614;2022-12-29T15:21:01;58.78;;;25.85;;
35552;SDS011;21656;46.054;13.614;2022-12-29T15:23:29;73.50;;;33.35;;
35552;SDS011;21656;46.054;13.614;2022-12-29T15:25:57;80.28;;;36.75;;
35552;SDS011;21656;46.054;13.614;2022-12-29T15:28:26;57.72;;;28.65;;
35552;SDS011;21656;46.054;13.614;2022-12-29T15:30:54;72.30;;;35.03;;
35552;SDS011;21656;46.054;13.614;2022-12-29T15:33:22;61.15;;;32.10;;
35552;SDS011;21656;46.054;13.614;2022-12-29T15:35:51;58.20;;;30.42;;
35552;SDS011;21656;46.054;13.614;2022-12-29T15:38:21;71.47;;;34.97;;
35552;SDS011;21656;46.054;13.614;2022-12-29T15:43:56;71.07;;;34.00;;
35552;SDS011;21656;46.054;13.614;2022-12-29T15:46:23;67.65;;;32.25;;
35552;SDS011;21656;46.054;13.614;2022-12-29T15:48:48;61.53;;;29.95;;
35552;SDS011;21656;46.054;13.614;2022-12-29T15:53:51;68.72;;;34.70;;
35552;SDS011;21656;46.054;13.614;2022-12-29T15:56:17;69.43;;;32.58;;
35552;SDS011;21656;46.054;13.614;2022-12-29T15:58:46;63.83;;;31.42;;
35552;SDS011;21656;46.054;13.614;2022-12-29T16:01:32;62.70;;;29.70;;
35552;SDS011;21656;46.054;13.614;2022-12-29T16:04:05;52.90;;;26.92;;
35552;SDS011;21656;46.054;13.614;2022-12-29T16:06:35;46.97;;;24.42;;
35552;SDS011;21656;46.054;13.614;2022-12-29T16:09:06;53.70;;;27.85;;
35552;SDS011;21656;46.054;13.614;2022-12-29T16:11:53;61.10;;;29.98;;
35552;SDS011;21656;46.054;13.614;2022-12-29T16:14:29;61.42;;;35.42;;
35552;SDS011;21656;46.054;13.614;2022-12-29T16:17:00;59.55;;;28.55;;
35552;SDS011;21656;46.054;13.614;2022-12-29T16:22:02;49.28;;;25.63;;
35552;SDS011;21656;46.054;13.614;2022-12-29T16:24:34;43.03;;;26.30;;
35552;SDS011;21656;46.054;13.614;2022-12-29T16:27:07;48.50;;;24.92;;
35552;SDS011;21656;46.054;13.614;2022-12-29T16:29:34;117.15;;;51.05;;
35552;SDS011;21656;46.054;13.614;2022-12-29T16:32:00;58.95;;;28.38;;
35552;SDS011;21656;46.054;13.614;2022-12-29T16:37:03;50.88;;;23.83;;
35552;SDS011;21656;46.054;13.614;2022-12-29T16:39:33;38.53;;;19.98;;
35552;SDS011;21656;46.054;13.614;2022-12-29T16:42:01;59.78;;;27.35;;
35552;SDS011;21656;46.054;13.614;2022-12-29T16:44:46;59.08;;;26.58;;
35552;SDS011;21656;46.054;13.614;2022-12-29T16:49:48;59.70;;;28.10;;
35552;SDS011;21656;46.054;13.614;2022-12-29T16:52:20;62.10;;;30.98;;
35552;SDS011;21656;46.054;13.614;2022-12-29T16:54:50;78.47;;;36.58;;
35552;SDS011;21656;46.054;13.614;2022-12-29T16:57:22;64.55;;;32.42;;
35552;SDS011;21656;46.054;13.614;2022-12-29T16:59:50;87.18;;;41.38;;
35552;SDS011;21656;46.054;13.614;2022-12-29T17:02:19;56.40;;;28.65;;
35552;SDS011;21656;46.054;13.614;2022-12-29T17:04:47;66.88;;;29.38;;
35552;SDS011;21656;46.054;13.614;2022-12-29T17:07:18;46.65;;;23.75;;
35552;SDS011;21656;46.054;13.614;2022-12-29T17:09:53;51.88;;;26.42;;
35552;SDS011;21656;46.054;13.614;2022-12-29T17:12:20;49.58;;;25.08;;
35552;SDS011;21656;46.054;13.614;2022-12-29T17:14:55;53.38;;;28.00;;
35552;SDS011;21656;46.054;13.614;2022-12-29T17:17:33;60.85;;;29.67;;
35552;SDS011;21656;46.054;13.614;2022-12-29T17:20:18;62.53;;;30.88;;
35552;SDS011;21656;46.054;13.614;2022-12-29T17:22:44;51.25;;;26.80;;
35552;SDS011;21656;46.054;13.614;2022-12-29T17:25:13;37.42;;;19.70;;
35552;SDS011;21656;46.054;13.614;2022-12-29T17:27:41;35.67;;;20.75;;
35552;SDS011;21656;46.054;13.614;2022-12-29T17:32:37;32.72;;;17.27;;
35552;SDS011;21656;46.054;13.614;2022-12-29T17:35:04;34.00;;;18.85;;
35552;SDS011;21656;46.054;13.614;2022-12-29T17:37:31;31.90;;;15.95;;
35552;SDS011;21656;46.054;13.614;2022-12-29T17:39:58;28.85;;;17.00;;
35552;SDS011;21656;46.054;13.614;2022-12-29T17:42:24;37.25;;;20.30;;
35552;SDS011;21656;46.054;13.614;2022-12-29T17:44:49;41.55;;;21.85;;
35552;SDS011;21656;46.054;13.614;2022-12-29T17:47:15;39.83;;;23.27;;
35552;SDS011;21656;46.054;13.614;2022-12-29T17:49:40;41.20;;;23.42;;
35552;SDS011;21656;46.054;13.614;2022-12-29T17:52:13;47.38;;;23.95;;
35552;SDS011;21656;46.054;13.614;2022-12-29T17:54:45;59.33;;;30.38;;
35552;SDS011;21656;46.054;13.614;2022-12-29T17:59:40;33.55;;;19.13;;
35552;SDS011;21656;46.054;13.614;2022-12-29T18:02:18;35.83;;;20.02;;
35552;SDS011;21656;46.054;13.614;2022-12-29T18:04:51;32.08;;;18.50;;
35552;SDS011;21656;46.054;13.614;2022-12-29T18:07:17;41.05;;;22.58;;
35552;SDS011;21656;46.054;13.614;2022-12-29T18:09:42;53.70;;;26.98;;
35552;SDS011;21656;46.054;13.614;2022-12-29T18:12:12;53.72;;;26.08;;
35552;SDS011;21656;46.054;13.614;2022-12-29T18:15:24;52.95;;;26.58;;
35552;SDS011;21656;46.054;13.614;2022-12-29T18:17:58;57.20;;;28.13;;
35552;SDS011;21656;46.054;13.614;2022-12-29T18:20:28;61.45;;;26.02;;
35552;SDS011;21656;46.054;13.614;2022-12-29T18:22:55;77.80;;;30.77;;
35552;SDS011;21656;46.054;13.614;2022-12-29T18:25:24;46.85;;;22.27;;
35552;SDS011;21656;46.054;13.614;2022-12-29T18:28:09;45.50;;;19.55;;
35552;SDS011;21656;46.054;13.614;2022-12-29T18:30:34;46.47;;;21.90;;
35552;SDS011;21656;46.054;13.614;2022-12-29T18:33:00;62.65;;;27.20;;
35552;SDS011;21656;46.054;13.614;2022-12-29T18:35:27;57.47;;;25.83;;
35552;SDS011;21656;46.054;13.614;2022-12-29T18:38:00;40.42;;;19.25;;
35552;SDS011;21656;46.054;13.614;2022-12-29T18:40:26;37.95;;;20.20;;
35552;SDS011;21656;46.054;13.614;2022-12-29T18:42:51;38.47;;;19.63;;
35552;SDS011;21656;46.054;13.614;2022-12-29T18:45:18;35.58;;;19.13;;
35552;SDS011;21656;46.054;13.614;2022-12-29T18:47:45;32.58;;;19.90;;
35552;SDS011;21656;46.054;13.614;2022-12-29T18:50:11;39.35;;;20.10;;
35552;SDS011;21656;46.054;13.614;2022-12-29T18:52:37;46.63;;;25.80;;
35552;SDS011;21656;46.054;13.614;2022-12-29T18:55:03;57.47;;;27.55;;
35552;SDS011;21656;46.054;13.614;2022-12-29T18:57:28;102.53;;;44.03;;
35552;SDS011;21656;46.054;13.614;2022-12-29T18:59:55;95.97;;;43.50;;
35552;SDS011;21656;46.054;13.614;2022-12-29T19:02:21;181.85;;;60.42;;
35552;SDS011;21656;46.054;13.614;2022-12-29T19:04:46;126.50;;;47.05;;
35552;SDS011;21656;46.054;13.614;2022-12-29T19:07:12;146.18;;;50.10;;
35552;SDS011;21656;46.054;13.614;2022-12-29T19:09:37;136.32;;;49.28;;
35552;SDS011;21656;46.054;13.614;2022-12-29T19:12:03;155.10;;;53.17;;
35552;SDS011;21656;46.054;13.614;2022-12-29T19:14:29;135.70;;;48.78;;
35552;SDS011;21656;46.054;13.614;2022-12-29T19:16:55;82.60;;;40.83;;
35552;SDS011;21656;46.054;13.614;2022-12-29T19:19:21;84.40;;;40.25;;
35552;SDS011;21656;46.054;13.614;2022-12-29T19:21:46;97.90;;;48.72;;
35552;SDS011;21656;46.054;13.614;2022-12-29T19:24:11;97.72;;;46.35;;
35552;SDS011;21656;46.054;13.614;2022-12-29T19:26:38;99.10;;;47.83;;
35552;SDS011;21656;46.054;13.614;2022-12-29T19:29:09;74.75;;;39.58;;
35552;SDS011;21656;46.054;13.614;2022-12-29T19:31:38;58.00;;;31.15;;
35552;SDS011;21656;46.054;13.614;2022-12-29T19:34:03;44.47;;;23.33;;
35552;SDS011;21656;46.054;13.614;2022-12-29T19:36:29;41.28;;;22.15;;
35552;SDS011;21656;46.054;13.614;2022-12-29T19:38:54;43.05;;;23.80;;
35552;SDS011;21656;46.054;13.614;2022-12-29T19:41:20;55.63;;;28.70;;
35552;SDS011;21656;46.054;13.614;2022-12-29T19:43:45;55.17;;;28.00;;
35552;SDS011;21656;46.054;13.614;2022-12-29T19:46:14;44.63;;;24.35;;
35552;SDS011;21656;46.054;13.614;2022-12-29T19:48:41;44.50;;;26.35;;
35552;SDS011;21656;46.054;13.614;2022-12-29T19:51:08;59.55;;;29.90;;
35552;SDS011;21656;46.054;13.614;2022-12-29T19:53:35;71.00;;;41.58;;
35552;SDS011;21656;46.054;13.614;2022-12-29T19:56:02;75.80;;;39.72;;
35552;SDS011;21656;46.054;13.614;2022-12-29T19:58:30;51.55;;;29.33;;
35552;SDS011;21656;46.054;13.614;2022-12-29T20:03:36;41.85;;;23.95;;
35552;SDS011;21656;46.054;13.614;2022-12-29T20:06:03;31.38;;;16.30;;
35552;SDS011;21656;46.054;13.614;2022-12-29T20:08:29;29.20;;;13.52;;
35552;SDS011;21656;46.054;13.614;2022-12-29T20:11:05;26.92;;;13.50;;
35552;SDS011;21656;46.054;13.614;2022-12-29T20:13:32;33.22;;;18.05;;
35552;SDS011;21656;46.054;13.614;2022-12-29T20:16:02;33.50;;;17.10;;
35552;SDS011;21656;46.054;13.614;2022-12-29T20:18:29;32.30;;;16.02;;
35552;SDS011;21656;46.054;13.614;2022-12-29T20:21:08;40.60;;;20.17;;
35552;SDS011;21656;46.054;13.614;2022-12-29T20:23:37;53.50;;;25.98;;
35552;SDS011;21656;46.054;13.614;2022-12-29T20:26:04;52.63;;;28.55;;
35552;SDS011;21656;46.054;13.614;2022-12-29T20:28:33;64.03;;;34.85;;
35552;SDS011;21656;46.054;13.614;2022-12-29T20:33:26;71.70;;;37.65;;
35552;SDS011;21656;46.054;13.614;2022-12-29T20:35:53;70.38;;;37.47;;
35552;SDS011;21656;46.054;13.614;2022-12-29T20:38:27;71.57;;;37.92;;
35552;SDS011;21656;46.054;13.614;2022-12-29T20:40:52;49.42;;;24.50;;
35552;SDS011;21656;46.054;13.614;2022-12-29T20:43:18;35.65;;;19.08;;
35552;SDS011;21656;46.054;13.614;2022-12-29T20:45:43;36.78;;;20.90;;
35552;SDS011;21656;46.054;13.614;2022-12-29T20:48:08;52.17;;;26.00;;
35552;SDS011;21656;46.054;13.614;2022-12-29T20:50:34;45.65;;;25.73;;
35552;SDS011;21656;46.054;13.614;2022-12-29T20:52:59;54.00;;;30.25;;
35552;SDS011;21656;46.054;13.614;2022-12-29T20:55:25;48.38;;;26.95;;
35552;SDS011;21656;46.054;13.614;2022-12-29T20:57:50;47.95;;;25.92;;
35552;SDS011;21656;46.054;13.614;2022-12-29T21:00:16;48.75;;;26.05;;
35552;SDS011;21656;46.054;13.614;2022-12-29T21:02:41;63.17;;;30.48;;
35552;SDS011;21656;46.054;13.614;2022-12-29T21:05:07;43.72;;;24.55;;
35552;SDS011;21656;46.054;13.614;2022-12-29T21:07:33;46.10;;;23.88;;
35552;SDS011;21656;46.054;13.614;2022-12-29T21:09:58;50.35;;;26.10;;
35552;SDS011;21656;46.054;13.614;2022-12-29T21:12:25;54.40;;;27.88;;
35552;SDS011;21656;46.054;13.614;2022-12-29T21:14:50;50.53;;;27.13;;
35552;SDS011;21656;46.054;13.614;2022-12-29T21:17:16;57.88;;;31.25;;
35552;SDS011;21656;46.054;13.614;2022-12-29T21:19:41;56.90;;;29.60;;
35552;SDS011;21656;46.054;13.614;2022-12-29T21:22:07;61.78;;;32.03;;
35552;SDS011;21656;46.054;13.614;2022-12-29T21:24:33;61.80;;;33.60;;
35552;SDS011;21656;46.054;13.614;2022-12-29T21:26:59;62.83;;;35.67;;
35552;SDS011;21656;46.054;13.614;2022-12-29T21:29:24;54.15;;;30.08;;
35552;SDS011;21656;46.054;13.614;2022-12-29T21:31:50;52.30;;;30.38;;
35552;SDS011;21656;46.054;13.614;2022-12-29T21:34:16;51.50;;;28.48;;
35552;SDS011;21656;46.054;13.614;2022-12-29T21:36:41;57.83;;;31.00;;
35552;SDS011;21656;46.054;13.614;2022-12-29T21:39:07;54.28;;;29.55;;
35552;SDS011;21656;46.054;13.614;2022-12-29T21:41:32;49.55;;;28.30;;
35552;SDS011;21656;46.054;13.614;2022-12-29T21:43:58;59.13;;;30.35;;
35552;SDS011;21656;46.054;13.614;2022-12-29T21:49:10;36.03;;;19.92;;
35552;SDS011;21656;46.054;13.614;2022-12-29T21:51:36;36.25;;;20.00;;
35552;SDS011;21656;46.054;13.614;2022-12-29T21:54:14;45.67;;;25.00;;
35552;SDS011;21656;46.054;13.614;2022-12-29T21:56:58;47.03;;;25.58;;
35552;SDS011;21656;46.054;13.614;2022-12-29T21:59:23;53.70;;;26.48;;
35552;SDS011;21656;46.054;13.614;2022-12-29T22:02:21;50.95;;;26.33;;
